sensor_id;sensor_type;location;lat;lon;timestamp;temperature;humidity
30999;DHT22;20549;50.042;8.968;2023-03-03T00:02:20;4.70;55.10
30999;DHT22;20549;50.042;8.968;2023-03-03T00:04:47;4.70;55.30
30999;DHT22;20549;50.042;8.968;2023-03-03T00:07:13;4.60;55.30
30999;DHT22;20549;50.042;8.968;2023-03-03T00:09:40;4.60;55.40
30999;DHT22;20549;50.042;8.968;2023-03-03T00:12:22;4.50;55.50
30999;DHT22;20549;50.042;8.968;2023-03-03T00:14:48;4.50;55.60
30999;DHT22;20549;50.042;8.968;2023-03-03T00:17:19;4.40;55.60
30999;DHT22;20549;50.042;8.968;2023-03-03T00:19:41;4.40;55.70
30999;DHT22;20549;50.042;8.968;2023-03-03T00:22:13;4.40;55.90
30999;DHT22;20549;50.042;8.968;2023-03-03T00:24:35;4.40;56.00
30999;DHT22;20549;50.042;8.968;2023-03-03T00:27:01;4.30;56.10
30999;DHT22;20549;50.042;8.968;2023-03-03T00:32:25;4.20;56.20
30999;DHT22;20549;50.042;8.968;2023-03-03T00:34:51;4.20;56.30
30999;DHT22;20549;50.042;8.968;2023-03-03T00:37:25;4.20;56.30
30999;DHT22;20549;50.042;8.968;2023-03-03T00:39:49;4.10;56.30
30999;DHT22;20549;50.042;8.968;2023-03-03T00:42:16;4.10;56.40
30999;DHT22;20549;50.042;8.968;2023-03-03T00:44:46;4.10;56.60
30999;DHT22;20549;50.042;8.968;2023-03-03T00:47:31;4.00;56.70
30999;DHT22;20549;50.042;8.968;2023-03-03T00:52:44;3.90;56.70
30999;DHT22;20549;50.042;8.968;2023-03-03T00:55:04;3.90;56.90
30999;DHT22;20549;50.042;8.968;2023-03-03T00:57:30;3.90;57.10
30999;DHT22;20549;50.042;8.968;2023-03-03T00:59:57;3.90;57.20
30999;DHT22;20549;50.042;8.968;2023-03-03T01:02:23;3.80;57.30
30999;DHT22;20549;50.042;8.968;2023-03-03T01:04:51;3.80;57.50
30999;DHT22;20549;50.042;8.968;2023-03-03T01:07:17;3.80;57.60
30999;DHT22;20549;50.042;8.968;2023-03-03T01:09:43;3.80;57.70
30999;DHT22;20549;50.042;8.968;2023-03-03T01:12:10;3.80;57.80
30999;DHT22;20549;50.042;8.968;2023-03-03T01:14:37;3.70;57.90
30999;DHT22;20549;50.042;8.968;2023-03-03T01:17:03;3.70;57.90
30999;DHT22;20549;50.042;8.968;2023-03-03T01:19:30;3.70;58.00
30999;DHT22;20549;50.042;8.968;2023-03-03T01:21:56;3.70;58.40
30999;DHT22;20549;50.042;8.968;2023-03-03T01:24:23;3.70;58.40
30999;DHT22;20549;50.042;8.968;2023-03-03T01:26:49;3.70;58.50
30999;DHT22;20549;50.042;8.968;2023-03-03T01:29:16;3.70;58.60
30999;DHT22;20549;50.042;8.968;2023-03-03T01:31:42;3.70;58.70
30999;DHT22;20549;50.042;8.968;2023-03-03T01:34:09;3.70;59.00
30999;DHT22;20549;50.042;8.968;2023-03-03T01:36:36;3.70;59.20
30999;DHT22;20549;50.042;8.968;2023-03-03T01:39:02;3.70;59.40
30999;DHT22;20549;50.042;8.968;2023-03-03T01:41:29;3.70;59.50
30999;DHT22;20549;50.042;8.968;2023-03-03T01:43:55;3.70;59.50
30999;DHT22;20549;50.042;8.968;2023-03-03T01:46:45;3.70;59.40
30999;DHT22;20549;50.042;8.968;2023-03-03T01:49:12;3.70;59.40
30999;DHT22;20549;50.042;8.968;2023-03-03T01:52:02;3.70;59.40
30999;DHT22;20549;50.042;8.968;2023-03-03T01:54:09;3.70;59.50
30999;DHT22;20549;50.042;8.968;2023-03-03T01:56:33;3.70;59.50
30999;DHT22;20549;50.042;8.968;2023-03-03T01:59:15;3.70;59.40
30999;DHT22;20549;50.042;8.968;2023-03-03T02:01:41;3.70;59.50
30999;DHT22;20549;50.042;8.968;2023-03-03T02:04:07;3.60;59.50
30999;DHT22;20549;50.042;8.968;2023-03-03T02:06:37;3.60;59.60
30999;DHT22;20549;50.042;8.968;2023-03-03T02:09:16;3.60;59.70
30999;DHT22;20549;50.042;8.968;2023-03-03T02:11:42;3.50;59.80
30999;DHT22;20549;50.042;8.968;2023-03-03T02:14:11;3.50;59.60
30999;DHT22;20549;50.042;8.968;2023-03-03T02:16:38;3.50;59.70
30999;DHT22;20549;50.042;8.968;2023-03-03T02:19:04;3.50;59.90
30999;DHT22;20549;50.042;8.968;2023-03-03T02:21:31;3.40;60.40
30999;DHT22;20549;50.042;8.968;2023-03-03T02:24:17;3.40;60.00
30999;DHT22;20549;50.042;8.968;2023-03-03T02:26:42;3.40;60.00
30999;DHT22;20549;50.042;8.968;2023-03-03T02:29:08;3.30;60.00
30999;DHT22;20549;50.042;8.968;2023-03-03T02:31:35;3.30;60.10
30999;DHT22;20549;50.042;8.968;2023-03-03T02:34:01;3.30;60.20
30999;DHT22;20549;50.042;8.968;2023-03-03T02:36:29;3.20;60.00
30999;DHT22;20549;50.042;8.968;2023-03-03T02:39:06;3.20;60.40
30999;DHT22;20549;50.042;8.968;2023-03-03T02:44:20;3.10;60.50
30999;DHT22;20549;50.042;8.968;2023-03-03T02:46:46;3.10;60.60
30999;DHT22;20549;50.042;8.968;2023-03-03T02:49:12;3.10;60.80
30999;DHT22;20549;50.042;8.968;2023-03-03T02:51:38;3.00;60.90
30999;DHT22;20549;50.042;8.968;2023-03-03T02:54:05;3.00;61.00
30999;DHT22;20549;50.042;8.968;2023-03-03T02:56:31;3.00;61.10
30999;DHT22;20549;50.042;8.968;2023-03-03T02:58:58;2.90;61.10
30999;DHT22;20549;50.042;8.968;2023-03-03T03:01:24;2.90;61.30
30999;DHT22;20549;50.042;8.968;2023-03-03T03:03:51;2.90;61.50
30999;DHT22;20549;50.042;8.968;2023-03-03T03:06:18;2.90;61.70
30999;DHT22;20549;50.042;8.968;2023-03-03T03:08:44;2.90;61.60
30999;DHT22;20549;50.042;8.968;2023-03-03T03:11:11;2.90;61.70
30999;DHT22;20549;50.042;8.968;2023-03-03T03:13:37;2.80;61.70
30999;DHT22;20549;50.042;8.968;2023-03-03T03:16:04;2.80;61.90
30999;DHT22;20549;50.042;8.968;2023-03-03T03:18:30;2.80;62.10
30999;DHT22;20549;50.042;8.968;2023-03-03T03:21:04;2.80;62.40
30999;DHT22;20549;50.042;8.968;2023-03-03T03:23:24;2.80;62.20
30999;DHT22;20549;50.042;8.968;2023-03-03T03:25:50;2.80;62.20
30999;DHT22;20549;50.042;8.968;2023-03-03T03:28:17;2.80;62.20
30999;DHT22;20549;50.042;8.968;2023-03-03T03:30:43;2.80;62.30
30999;DHT22;20549;50.042;8.968;2023-03-03T03:33:10;2.80;62.30
30999;DHT22;20549;50.042;8.968;2023-03-03T03:35:37;2.80;62.50
30999;DHT22;20549;50.042;8.968;2023-03-03T03:38:03;2.80;62.50
30999;DHT22;20549;50.042;8.968;2023-03-03T03:40:30;2.80;62.50
30999;DHT22;20549;50.042;8.968;2023-03-03T03:42:56;2.80;62.70
30999;DHT22;20549;50.042;8.968;2023-03-03T03:45:23;2.80;62.90
30999;DHT22;20549;50.042;8.968;2023-03-03T03:47:49;2.80;63.00
30999;DHT22;20549;50.042;8.968;2023-03-03T03:50:16;2.80;63.00
30999;DHT22;20549;50.042;8.968;2023-03-03T03:52:43;2.70;63.20
30999;DHT22;20549;50.042;8.968;2023-03-03T03:55:09;2.70;62.80
30999;DHT22;20549;50.042;8.968;2023-03-03T03:57:36;2.70;63.00
30999;DHT22;20549;50.042;8.968;2023-03-03T04:00:03;2.70;62.90
30999;DHT22;20549;50.042;8.968;2023-03-03T04:02:29;2.70;62.90
30999;DHT22;20549;50.042;8.968;2023-03-03T04:04:56;2.60;63.00
30999;DHT22;20549;50.042;8.968;2023-03-03T04:07:22;2.70;63.30
30999;DHT22;20549;50.042;8.968;2023-03-03T04:09:49;2.60;63.50
30999;DHT22;20549;50.042;8.968;2023-03-03T04:12:15;2.60;63.60
30999;DHT22;20549;50.042;8.968;2023-03-03T04:14:42;2.60;63.70
30999;DHT22;20549;50.042;8.968;2023-03-03T04:17:14;2.60;63.60
30999;DHT22;20549;50.042;8.968;2023-03-03T04:19:35;2.60;63.90
30999;DHT22;20549;50.042;8.968;2023-03-03T04:22:02;2.60;64.20
30999;DHT22;20549;50.042;8.968;2023-03-03T04:24:28;2.60;64.30
30999;DHT22;20549;50.042;8.968;2023-03-03T04:26:55;2.60;64.30
30999;DHT22;20549;50.042;8.968;2023-03-03T04:29:21;2.60;64.10
30999;DHT22;20549;50.042;8.968;2023-03-03T04:31:48;2.60;64.30
30999;DHT22;20549;50.042;8.968;2023-03-03T04:34:15;2.60;64.20
30999;DHT22;20549;50.042;8.968;2023-03-03T04:36:41;2.60;64.50
30999;DHT22;20549;50.042;8.968;2023-03-03T04:39:08;2.60;64.60
30999;DHT22;20549;50.042;8.968;2023-03-03T04:41:34;2.60;64.80
30999;DHT22;20549;50.042;8.968;2023-03-03T04:44:01;2.60;64.90
30999;DHT22;20549;50.042;8.968;2023-03-03T04:46:28;2.60;64.90
30999;DHT22;20549;50.042;8.968;2023-03-03T04:48:54;2.50;64.70
30999;DHT22;20549;50.042;8.968;2023-03-03T04:51:21;2.60;64.60
30999;DHT22;20549;50.042;8.968;2023-03-03T04:53:47;2.60;64.70
30999;DHT22;20549;50.042;8.968;2023-03-03T04:56:14;2.60;65.00
30999;DHT22;20549;50.042;8.968;2023-03-03T04:58:41;2.50;65.00
30999;DHT22;20549;50.042;8.968;2023-03-03T05:01:09;2.50;65.20
30999;DHT22;20549;50.042;8.968;2023-03-03T05:03:34;2.50;65.10
30999;DHT22;20549;50.042;8.968;2023-03-03T05:06:00;2.50;64.40
30999;DHT22;20549;50.042;8.968;2023-03-03T05:08:27;2.50;65.40
30999;DHT22;20549;50.042;8.968;2023-03-03T05:10:53;2.50;65.60
30999;DHT22;20549;50.042;8.968;2023-03-03T05:13:20;2.40;65.70
30999;DHT22;20549;50.042;8.968;2023-03-03T05:15:50;2.40;65.70
30999;DHT22;20549;50.042;8.968;2023-03-03T05:18:17;2.40;65.50
30999;DHT22;20549;50.042;8.968;2023-03-03T05:20:43;2.40;65.50
30999;DHT22;20549;50.042;8.968;2023-03-03T05:23:09;2.40;65.60
30999;DHT22;20549;50.042;8.968;2023-03-03T05:25:36;2.40;65.50
30999;DHT22;20549;50.042;8.968;2023-03-03T05:28:03;2.40;65.70
30999;DHT22;20549;50.042;8.968;2023-03-03T05:30:29;2.40;65.00
30999;DHT22;20549;50.042;8.968;2023-03-03T05:32:56;2.30;65.00
30999;DHT22;20549;50.042;8.968;2023-03-03T05:35:22;2.30;65.10
30999;DHT22;20549;50.042;8.968;2023-03-03T05:37:49;2.30;65.30
30999;DHT22;20549;50.042;8.968;2023-03-03T05:40:16;2.30;65.20
30999;DHT22;20549;50.042;8.968;2023-03-03T05:42:42;2.30;65.20
30999;DHT22;20549;50.042;8.968;2023-03-03T05:45:09;2.30;65.10
30999;DHT22;20549;50.042;8.968;2023-03-03T05:47:35;2.30;66.00
30999;DHT22;20549;50.042;8.968;2023-03-03T05:50:02;2.30;66.00
30999;DHT22;20549;50.042;8.968;2023-03-03T05:52:29;2.30;66.20
30999;DHT22;20549;50.042;8.968;2023-03-03T05:54:55;2.30;66.40
30999;DHT22;20549;50.042;8.968;2023-03-03T05:57:22;2.20;66.40
30999;DHT22;20549;50.042;8.968;2023-03-03T05:59:48;2.20;66.30
30999;DHT22;20549;50.042;8.968;2023-03-03T06:02:15;2.20;66.30
30999;DHT22;20549;50.042;8.968;2023-03-03T06:04:42;2.20;66.50
30999;DHT22;20549;50.042;8.968;2023-03-03T06:07:08;2.20;66.50
30999;DHT22;20549;50.042;8.968;2023-03-03T06:09:35;2.20;66.70
30999;DHT22;20549;50.042;8.968;2023-03-03T06:12:01;2.20;67.10
30999;DHT22;20549;50.042;8.968;2023-03-03T06:14:28;2.20;67.20
30999;DHT22;20549;50.042;8.968;2023-03-03T06:16:54;2.20;67.10
30999;DHT22;20549;50.042;8.968;2023-03-03T06:19:21;2.20;67.30
30999;DHT22;20549;50.042;8.968;2023-03-03T06:21:48;2.20;66.90
30999;DHT22;20549;50.042;8.968;2023-03-03T06:24:14;2.20;67.80
30999;DHT22;20549;50.042;8.968;2023-03-03T06:26:41;2.20;67.60
30999;DHT22;20549;50.042;8.968;2023-03-03T06:29:07;2.20;67.80
30999;DHT22;20549;50.042;8.968;2023-03-03T06:31:34;2.30;67.80
30999;DHT22;20549;50.042;8.968;2023-03-03T06:34:01;2.30;68.00
30999;DHT22;20549;50.042;8.968;2023-03-03T06:36:27;2.40;68.90
30999;DHT22;20549;50.042;8.968;2023-03-03T06:38:54;2.40;68.20
30999;DHT22;20549;50.042;8.968;2023-03-03T06:41:20;2.50;68.50
30999;DHT22;20549;50.042;8.968;2023-03-03T06:43:47;2.60;68.80
30999;DHT22;20549;50.042;8.968;2023-03-03T06:46:13;2.80;68.80
30999;DHT22;20549;50.042;8.968;2023-03-03T06:48:40;2.90;68.30
30999;DHT22;20549;50.042;8.968;2023-03-03T06:51:53;3.00;67.80
30999;DHT22;20549;50.042;8.968;2023-03-03T06:53:33;3.20;67.60
30999;DHT22;20549;50.042;8.968;2023-03-03T06:56:00;3.30;67.60
30999;DHT22;20549;50.042;8.968;2023-03-03T06:58:26;3.40;67.40
30999;DHT22;20549;50.042;8.968;2023-03-03T07:00:56;3.60;67.30
30999;DHT22;20549;50.042;8.968;2023-03-03T07:03:24;3.70;67.40
30999;DHT22;20549;50.042;8.968;2023-03-03T07:05:49;3.90;67.50
30999;DHT22;20549;50.042;8.968;2023-03-03T07:08:16;4.10;67.50
30999;DHT22;20549;50.042;8.968;2023-03-03T07:10:42;4.40;68.10
30999;DHT22;20549;50.042;8.968;2023-03-03T07:13:24;4.60;68.10
30999;DHT22;20549;50.042;8.968;2023-03-03T07:15:54;4.80;67.70
30999;DHT22;20549;50.042;8.968;2023-03-03T07:20:55;5.20;66.50
30999;DHT22;20549;50.042;8.968;2023-03-03T07:23:36;5.40;66.40
30999;DHT22;20549;50.042;8.968;2023-03-03T07:25:52;5.50;66.20
30999;DHT22;20549;50.042;8.968;2023-03-03T07:28:25;5.60;65.70
30999;DHT22;20549;50.042;8.968;2023-03-03T07:30:55;5.70;65.50
30999;DHT22;20549;50.042;8.968;2023-03-03T07:35:50;5.80;65.00
30999;DHT22;20549;50.042;8.968;2023-03-03T07:40:50;5.90;64.70
30999;DHT22;20549;50.042;8.968;2023-03-03T07:43:24;5.90;64.70
30999;DHT22;20549;50.042;8.968;2023-03-03T07:45:44;6.00;64.60
30999;DHT22;20549;50.042;8.968;2023-03-03T07:48:30;6.00;64.90
30999;DHT22;20549;50.042;8.968;2023-03-03T07:50:57;6.10;65.50
30999;DHT22;20549;50.042;8.968;2023-03-03T07:53:25;6.30;65.70
30999;DHT22;20549;50.042;8.968;2023-03-03T07:55:51;6.50;65.60
30999;DHT22;20549;50.042;8.968;2023-03-03T07:58:26;6.60;65.40
30999;DHT22;20549;50.042;8.968;2023-03-03T08:03:54;7.00;64.80
30999;DHT22;20549;50.042;8.968;2023-03-03T08:06:31;7.10;64.50
30999;DHT22;20549;50.042;8.968;2023-03-03T08:08:59;7.20;64.50
30999;DHT22;20549;50.042;8.968;2023-03-03T08:11:23;7.40;64.20
30999;DHT22;20549;50.042;8.968;2023-03-03T08:13:49;7.50;64.40
30999;DHT22;20549;50.042;8.968;2023-03-03T08:18:43;8.20;65.60
30999;DHT22;20549;50.042;8.968;2023-03-03T08:21:18;8.70;66.10
30999;DHT22;20549;50.042;8.968;2023-03-03T08:23:44;9.20;65.80
30999;DHT22;20549;50.042;8.968;2023-03-03T08:26:11;9.80;65.10
30999;DHT22;20549;50.042;8.968;2023-03-03T08:28:40;10.30;64.30
30999;DHT22;20549;50.042;8.968;2023-03-03T08:31:07;10.80;63.80
30999;DHT22;20549;50.042;8.968;2023-03-03T08:33:33;11.30;63.30
30999;DHT22;20549;50.042;8.968;2023-03-03T08:36:00;11.70;62.80
30999;DHT22;20549;50.042;8.968;2023-03-03T08:38:26;12.20;62.20
30999;DHT22;20549;50.042;8.968;2023-03-03T08:40:53;12.60;61.50
30999;DHT22;20549;50.042;8.968;2023-03-03T08:43:20;13.00;60.50
30999;DHT22;20549;50.042;8.968;2023-03-03T08:45:50;13.40;60.00
30999;DHT22;20549;50.042;8.968;2023-03-03T08:48:16;13.80;59.80
30999;DHT22;20549;50.042;8.968;2023-03-03T08:50:42;14.20;59.10
30999;DHT22;20549;50.042;8.968;2023-03-03T08:53:10;14.50;58.10
30999;DHT22;20549;50.042;8.968;2023-03-03T08:55:36;14.80;57.20
30999;DHT22;20549;50.042;8.968;2023-03-03T08:58:02;15.00;56.80
30999;DHT22;20549;50.042;8.968;2023-03-03T09:00:29;15.20;56.50
30999;DHT22;20549;50.042;8.968;2023-03-03T09:02:55;15.50;56.50
30999;DHT22;20549;50.042;8.968;2023-03-03T09:05:22;15.70;55.80
30999;DHT22;20549;50.042;8.968;2023-03-03T09:07:48;15.90;55.60
30999;DHT22;20549;50.042;8.968;2023-03-03T09:10:16;16.10;55.80
30999;DHT22;20549;50.042;8.968;2023-03-03T09:12:42;16.40;55.80
30999;DHT22;20549;50.042;8.968;2023-03-03T09:15:17;16.70;55.50
30999;DHT22;20549;50.042;8.968;2023-03-03T09:17:41;17.00;54.80
30999;DHT22;20549;50.042;8.968;2023-03-03T09:20:30;17.20;54.30
30999;DHT22;20549;50.042;8.968;2023-03-03T09:22:55;17.40;53.80
30999;DHT22;20549;50.042;8.968;2023-03-03T09:25:34;17.60;53.40
30999;DHT22;20549;50.042;8.968;2023-03-03T09:28:00;17.70;53.30
30999;DHT22;20549;50.042;8.968;2023-03-03T09:30:36;17.90;53.40
30999;DHT22;20549;50.042;8.968;2023-03-03T09:33:15;17.90;52.90
30999;DHT22;20549;50.042;8.968;2023-03-03T09:35:37;18.10;52.70
30999;DHT22;20549;50.042;8.968;2023-03-03T09:38:53;18.20;52.40
30999;DHT22;20549;50.042;8.968;2023-03-03T09:43:14;18.30;51.40
30999;DHT22;20549;50.042;8.968;2023-03-03T09:45:50;18.30;51.10
30999;DHT22;20549;50.042;8.968;2023-03-03T09:53:28;18.20;51.10
30999;DHT22;20549;50.042;8.968;2023-03-03T09:55:56;18.10;51.10
30999;DHT22;20549;50.042;8.968;2023-03-03T10:01:18;17.90;50.50
30999;DHT22;20549;50.042;8.968;2023-03-03T10:04:14;17.70;50.30
30999;DHT22;20549;50.042;8.968;2023-03-03T10:11:57;17.00;50.40
30999;DHT22;20549;50.042;8.968;2023-03-03T10:17:08;16.50;50.50
30999;DHT22;20549;50.042;8.968;2023-03-03T10:20:00;16.20;50.50
30999;DHT22;20549;50.042;8.968;2023-03-03T10:22:23;16.00;50.50
30999;DHT22;20549;50.042;8.968;2023-03-03T10:25:01;15.80;50.60
30999;DHT22;20549;50.042;8.968;2023-03-03T10:27:32;15.50;50.70
30999;DHT22;20549;50.042;8.968;2023-03-03T10:32:34;15.10;50.80
30999;DHT22;20549;50.042;8.968;2023-03-03T10:35:13;14.90;50.80
30999;DHT22;20549;50.042;8.968;2023-03-03T10:37:46;14.60;50.70
30999;DHT22;20549;50.042;8.968;2023-03-03T10:51:50;13.10;51.60
30999;DHT22;20549;50.042;8.968;2023-03-03T10:53:47;12.80;52.00
30999;DHT22;20549;50.042;8.968;2023-03-03T10:58:41;12.40;52.40
30999;DHT22;20549;50.042;8.968;2023-03-03T11:01:15;12.20;53.30
30999;DHT22;20549;50.042;8.968;2023-03-03T11:03:45;12.10;53.00
30999;DHT22;20549;50.042;8.968;2023-03-03T11:06:13;12.00;53.30
30999;DHT22;20549;50.042;8.968;2023-03-03T11:08:48;11.90;53.40
30999;DHT22;20549;50.042;8.968;2023-03-03T11:11:34;11.90;53.70
30999;DHT22;20549;50.042;8.968;2023-03-03T11:14:11;11.80;53.70
30999;DHT22;20549;50.042;8.968;2023-03-03T11:21:55;11.50;53.90
30999;DHT22;20549;50.042;8.968;2023-03-03T11:30:07;11.40;54.30
30999;DHT22;20549;50.042;8.968;2023-03-03T11:35:27;11.20;54.50
30999;DHT22;20549;50.042;8.968;2023-03-03T11:38:01;11.20;54.70
30999;DHT22;20549;50.042;8.968;2023-03-03T11:40:29;11.20;54.70
30999;DHT22;20549;50.042;8.968;2023-03-03T11:45:41;11.20;55.00
30999;DHT22;20549;50.042;8.968;2023-03-03T11:48:13;11.20;55.10
30999;DHT22;20549;50.042;8.968;2023-03-03T11:50:41;11.20;55.10
30999;DHT22;20549;50.042;8.968;2023-03-03T11:53:24;11.20;55.20
30999;DHT22;20549;50.042;8.968;2023-03-03T11:55:51;11.20;54.60
30999;DHT22;20549;50.042;8.968;2023-03-03T12:00:59;11.30;55.90
30999;DHT22;20549;50.042;8.968;2023-03-03T12:03:30;11.30;55.40
30999;DHT22;20549;50.042;8.968;2023-03-03T12:05:56;11.30;55.30
30999;DHT22;20549;50.042;8.968;2023-03-03T12:19:20;11.40;55.40
30999;DHT22;20549;50.042;8.968;2023-03-03T12:24:25;11.40;55.30
30999;DHT22;20549;50.042;8.968;2023-03-03T12:29:33;11.40;55.40
30999;DHT22;20549;50.042;8.968;2023-03-03T12:32:22;11.40;55.50
30999;DHT22;20549;50.042;8.968;2023-03-03T12:37:52;11.40;55.50
30999;DHT22;20549;50.042;8.968;2023-03-03T12:40:06;11.40;55.50
30999;DHT22;20549;50.042;8.968;2023-03-03T12:48:08;11.50;55.40
30999;DHT22;20549;50.042;8.968;2023-03-03T12:53:49;11.50;55.40
30999;DHT22;20549;50.042;8.968;2023-03-03T12:56:17;11.50;55.40
30999;DHT22;20549;50.042;8.968;2023-03-03T12:58:49;11.40;55.30
30999;DHT22;20549;50.042;8.968;2023-03-03T13:03:48;11.40;55.30
30999;DHT22;20549;50.042;8.968;2023-03-03T13:15:00;11.50;55.80
30999;DHT22;20549;50.042;8.968;2023-03-03T13:20:01;11.50;55.70
30999;DHT22;20549;50.042;8.968;2023-03-03T13:27:51;11.50;55.80
30999;DHT22;20549;50.042;8.968;2023-03-03T13:30:24;11.50;55.70
30999;DHT22;20549;50.042;8.968;2023-03-03T13:32:54;11.50;55.70
30999;DHT22;20549;50.042;8.968;2023-03-03T13:35:42;11.40;55.70
30999;DHT22;20549;50.042;8.968;2023-03-03T13:38:09;11.40;55.80
30999;DHT22;20549;50.042;8.968;2023-03-03T13:40:39;11.40;55.80
30999;DHT22;20549;50.042;8.968;2023-03-03T13:43:16;11.40;55.80
30999;DHT22;20549;50.042;8.968;2023-03-03T13:45:57;11.40;55.80
30999;DHT22;20549;50.042;8.968;2023-03-03T13:51:18;11.40;55.80
30999;DHT22;20549;50.042;8.968;2023-03-03T13:53:53;11.40;55.90
30999;DHT22;20549;50.042;8.968;2023-03-03T13:56:41;11.30;55.30
30999;DHT22;20549;50.042;8.968;2023-03-03T13:59:30;11.30;56.00
30999;DHT22;20549;50.042;8.968;2023-03-03T14:02:22;11.30;56.00
30999;DHT22;20549;50.042;8.968;2023-03-03T14:04:58;11.30;56.00
30999;DHT22;20549;50.042;8.968;2023-03-03T14:07:36;11.30;55.90
30999;DHT22;20549;50.042;8.968;2023-03-03T14:12:33;11.30;56.00
30999;DHT22;20549;50.042;8.968;2023-03-03T14:20:02;11.20;56.20
30999;DHT22;20549;50.042;8.968;2023-03-03T14:22:43;11.20;56.30
30999;DHT22;20549;50.042;8.968;2023-03-03T14:25:08;11.30;56.20
30999;DHT22;20549;50.042;8.968;2023-03-03T14:27:42;11.30;56.20
30999;DHT22;20549;50.042;8.968;2023-03-03T14:33:01;11.30;56.20
30999;DHT22;20549;50.042;8.968;2023-03-03T14:35:43;11.30;56.20
30999;DHT22;20549;50.042;8.968;2023-03-03T14:38:12;11.30;56.10
30999;DHT22;20549;50.042;8.968;2023-03-03T14:40:38;11.20;56.30
30999;DHT22;20549;50.042;8.968;2023-03-03T14:43:07;11.20;56.10
30999;DHT22;20549;50.042;8.968;2023-03-03T14:45:37;11.20;56.00
30999;DHT22;20549;50.042;8.968;2023-03-03T14:48:16;11.20;56.30
30999;DHT22;20549;50.042;8.968;2023-03-03T14:50:57;11.20;56.20
30999;DHT22;20549;50.042;8.968;2023-03-03T14:53:40;11.20;56.20
30999;DHT22;20549;50.042;8.968;2023-03-03T14:56:15;11.20;56.30
30999;DHT22;20549;50.042;8.968;2023-03-03T14:58:40;11.20;56.30
30999;DHT22;20549;50.042;8.968;2023-03-03T15:03:46;11.20;56.30
30999;DHT22;20549;50.042;8.968;2023-03-03T15:06:11;11.20;56.30
30999;DHT22;20549;50.042;8.968;2023-03-03T15:08:38;11.10;56.30
30999;DHT22;20549;50.042;8.968;2023-03-03T15:11:17;11.10;56.30
30999;DHT22;20549;50.042;8.968;2023-03-03T15:13:37;11.10;56.30
30999;DHT22;20549;50.042;8.968;2023-03-03T15:16:08;11.10;56.40
30999;DHT22;20549;50.042;8.968;2023-03-03T15:18:31;11.10;56.40
30999;DHT22;20549;50.042;8.968;2023-03-03T15:21:15;11.00;56.40
30999;DHT22;20549;50.042;8.968;2023-03-03T15:23:43;11.00;56.40
30999;DHT22;20549;50.042;8.968;2023-03-03T15:36:55;10.90;56.50
30999;DHT22;20549;50.042;8.968;2023-03-03T15:39:57;10.80;56.50
30999;DHT22;20549;50.042;8.968;2023-03-03T15:50:58;10.60;56.60
30999;DHT22;20549;50.042;8.968;2023-03-03T15:58:57;10.50;56.90
30999;DHT22;20549;50.042;8.968;2023-03-03T16:01:41;10.40;56.80
30999;DHT22;20549;50.042;8.968;2023-03-03T16:04:13;10.40;57.00
30999;DHT22;20549;50.042;8.968;2023-03-03T16:06:42;10.30;57.00
30999;DHT22;20549;50.042;8.968;2023-03-03T16:11:33;10.20;57.00
30999;DHT22;20549;50.042;8.968;2023-03-03T16:18:02;10.20;57.10
30999;DHT22;20549;50.042;8.968;2023-03-03T16:23:23;10.00;57.50
30999;DHT22;20549;50.042;8.968;2023-03-03T16:25:57;9.90;57.50
30999;DHT22;20549;50.042;8.968;2023-03-03T16:33:47;9.70;57.40
30999;DHT22;20549;50.042;8.968;2023-03-03T16:38:40;9.60;57.50
30999;DHT22;20549;50.042;8.968;2023-03-03T16:41:06;9.50;57.60
30999;DHT22;20549;50.042;8.968;2023-03-03T16:43:42;9.50;57.60
30999;DHT22;20549;50.042;8.968;2023-03-03T16:48:55;9.40;57.80
30999;DHT22;20549;50.042;8.968;2023-03-03T16:51:30;9.30;57.80
30999;DHT22;20549;50.042;8.968;2023-03-03T16:56:47;9.10;57.90
30999;DHT22;20549;50.042;8.968;2023-03-03T16:59:35;9.10;57.90
30999;DHT22;20549;50.042;8.968;2023-03-03T17:05:10;8.90;58.10
30999;DHT22;20549;50.042;8.968;2023-03-03T17:07:53;8.80;58.00
30999;DHT22;20549;50.042;8.968;2023-03-03T17:10:18;8.70;58.10
30999;DHT22;20549;50.042;8.968;2023-03-03T17:12:57;8.60;58.20
30999;DHT22;20549;50.042;8.968;2023-03-03T17:15:37;8.50;58.20
30999;DHT22;20549;50.042;8.968;2023-03-03T17:23:28;8.30;58.30
30999;DHT22;20549;50.042;8.968;2023-03-03T17:26:04;8.10;58.30
30999;DHT22;20549;50.042;8.968;2023-03-03T17:28:37;8.10;58.40
30999;DHT22;20549;50.042;8.968;2023-03-03T17:31:43;8.00;58.50
30999;DHT22;20549;50.042;8.968;2023-03-03T17:39:34;7.70;58.80
30999;DHT22;20549;50.042;8.968;2023-03-03T17:44:45;7.60;58.80
30999;DHT22;20549;50.042;8.968;2023-03-03T17:47:15;7.50;59.00
30999;DHT22;20549;50.042;8.968;2023-03-03T17:58:07;7.20;59.50
30999;DHT22;20549;50.042;8.968;2023-03-03T18:03:41;7.10;60.00
30999;DHT22;20549;50.042;8.968;2023-03-03T18:17:13;6.70;60.50
30999;DHT22;20549;50.042;8.968;2023-03-03T18:22:33;6.60;60.70
30999;DHT22;20549;50.042;8.968;2023-03-03T18:25:14;6.60;61.00
30999;DHT22;20549;50.042;8.968;2023-03-03T18:27:44;6.50;61.00
30999;DHT22;20549;50.042;8.968;2023-03-03T18:30:12;6.50;61.10
30999;DHT22;20549;50.042;8.968;2023-03-03T18:32:46;6.40;61.40
30999;DHT22;20549;50.042;8.968;2023-03-03T18:37:50;6.30;61.70
30999;DHT22;20549;50.042;8.968;2023-03-03T18:40:31;6.30;61.70
30999;DHT22;20549;50.042;8.968;2023-03-03T18:42:55;6.20;62.00
30999;DHT22;20549;50.042;8.968;2023-03-03T18:50:34;6.10;62.20
30999;DHT22;20549;50.042;8.968;2023-03-03T18:58:23;5.90;62.50
30999;DHT22;20549;50.042;8.968;2023-03-03T19:03:35;5.80;62.70
30999;DHT22;20549;50.042;8.968;2023-03-03T19:06:01;5.80;63.00
30999;DHT22;20549;50.042;8.968;2023-03-03T19:08:44;5.70;62.80
30999;DHT22;20549;50.042;8.968;2023-03-03T19:11:29;5.70;63.20
30999;DHT22;20549;50.042;8.968;2023-03-03T19:13:50;5.60;63.10
30999;DHT22;20549;50.042;8.968;2023-03-03T19:21:24;5.50;63.60
30999;DHT22;20549;50.042;8.968;2023-03-03T19:23:49;5.40;63.80
30999;DHT22;20549;50.042;8.968;2023-03-03T19:45:59;5.00;64.30
30999;DHT22;20549;50.042;8.968;2023-03-03T19:48:53;4.90;64.40
30999;DHT22;20549;50.042;8.968;2023-03-03T19:54:36;4.80;64.70
30999;DHT22;20549;50.042;8.968;2023-03-03T19:56:59;4.70;64.60
30999;DHT22;20549;50.042;8.968;2023-03-03T20:04:42;4.60;65.00
30999;DHT22;20549;50.042;8.968;2023-03-03T20:13:08;4.50;65.30
30999;DHT22;20549;50.042;8.968;2023-03-03T20:15:53;4.40;65.30
30999;DHT22;20549;50.042;8.968;2023-03-03T20:31:44;4.20;66.00
30999;DHT22;20549;50.042;8.968;2023-03-03T20:37:09;4.20;66.10
30999;DHT22;20549;50.042;8.968;2023-03-03T20:39:39;4.10;66.00
30999;DHT22;20549;50.042;8.968;2023-03-03T20:42:37;4.10;66.20
30999;DHT22;20549;50.042;8.968;2023-03-03T20:50:26;4.00;66.30
30999;DHT22;20549;50.042;8.968;2023-03-03T20:52:56;3.90;66.50
30999;DHT22;20549;50.042;8.968;2023-03-03T20:55:40;3.90;66.70
30999;DHT22;20549;50.042;8.968;2023-03-03T21:00:47;3.80;66.80
30999;DHT22;20549;50.042;8.968;2023-03-03T21:05:58;3.80;66.80